Lewisetta, Virginia
Current Conditions -  °F | °C
As of 3:53 PM on Friday 28 Nov 2014 (Local Time) from KNUI Reporting Station
Few Clouds Few Clouds  
Wind Chill: 33°   Ceiling: Unl
Heat Index: 40°   Visibility: 10mi
Dew Point: 18°   Wind: 10mph
Humidity: 41%   Direction: 300°WNW
Pressure: 30.28"   Gusts: 17mph
Location:  37.9843°N, 76.5087°W
Report Text: KNUI 282053Z AUTO 30009G15KT 10SM FEW050 04/M08 A3028 RMK AO2 SLP251 T00441078 53008
Loading
Personal Weather Stations






























Interactive Weather Map New forecast layout! Learn more

10-Day Weather Forecast

Advertisements
Track Severe Weather on mobile